Carbondale, CO (81623)

12:27 PM MDT on June 22, 2017 (GMT -0600)
Tenth and Colorado | | Change Station

Elev 6181 ft 39.40 °N, 107.22 °W | Updated 10 seconds ago

Clear
Clear
87.4 °F
Feels Like 84 °F
N
0.0
Wind Variable Wind from ESE
Gusts 2.7 mph

Today
High -- | Low -- °F
--% Chance of Precip.
Yesterday
High -- | Low -- °F
Precip. -- in
Pressure 29.73 in
Visibility 10.0 miles
Clouds Clear
Heat Index 84 °F
Dew Point 26 °F
Humidity 11%
Rainfall 0.00 in
Snow Depth Not available.
5:42 AM 8:39 PM
Waning Crescent, 3% visible
METAR KASE 221753Z 03005KT 10SM CLR 26/04 A3014 RMK AO2 SLP065 T02610044 10261 20100 58003
Pressure 29.73 in
Visibility 10.0 miles
Clouds Clear
Heat Index 84 °F
Dew Point 26 °F
Humidity 11%
Rainfall 0.00 in
Snow Depth Not available.
5:42 AM 8:39 PM
Waning Crescent, 3% visible
METAR KASE 221753Z 03005KT 10SM CLR 26/04 A3014 RMK AO2 SLP065 T02610044 10261 20100 58003

Get Your Daily Forecast Email!

Thanks for signing up!

Be on the lookout for a verification email in your inbox.

You'll start receiving severe weather alerts in your inbox..

×

10-Day Weather Forecast

Almanac

Astronomy

Jun. 22, 2017 Rise Set
Actual Time
Civil Twilight
Nautical Twilight
Astronomical Twilight
Moon
Length of Visible Light
Length of Day
Tomorrow will be .
, % of the Moon is Illuminated

Today's Extremes

State Highs State Lows

Community

WunderPhotos

Category 6

Welcome to Category 6. This is the collective home for Weather Underground's featured writeups by Dr. Jeff Masters (right), Bob Henson (left), Chris Burt, and other regular contributors.

Nearby

Air Quality

  Air Quality AQ Index Pollutant
Not available.

Snow Depth

Station Depth Elevation

Earthquake Activity

City Distance Mag. Time & Date
Minimum magnitude displayed is 2.5.

Coastal Water Temperatures

Place Temperature

Stations

Nearby Weather Stations

Station Location Temp. Windchill Dew Point Humidity Wind Precip. Elev Updated Type
                   

Watches & Warnings

Flood Watch / Flood Statement
Issued: 12:22 PM MDT Jun. 22, 2017 – National Weather Service

The flood advisory is cancelled for
the Roaring Fork river near Aspen.
* At 11 am Thursday the stage was 3.8 feet.
* Bankfull stage is 4.0 feet.
* Flood stage is 5.0 feet.
* Forecast... the river crested near 4.5 feet. The river will
continue to fall to 3.9 feet by Friday morning.




               Fld observed forecast 6 a.M.
Location stg stg day time Fri Sat sun

Roaring Fork river
Aspen 5.0 3.8 Thu 11 am 3.9 3.6 3.3


Lat... Lon 3920 10681 3914 10668 3908 10671 3917 10683